sensor_id;sensor_type;location;lat;lon;timestamp;P1;durP1;ratioP1;P2;durP2;ratioP2
73150;SDS011;61354;50.758;6.106;2022-12-18T00:00:40;3.42;;;1.42;;
73150;SDS011;61354;50.758;6.106;2022-12-18T00:03:06;2.55;;;1.40;;
73150;SDS011;61354;50.758;6.106;2022-12-18T00:05:32;3.05;;;1.58;;
73150;SDS011;61354;50.758;6.106;2022-12-18T00:07:57;3.92;;;1.55;;
73150;SDS011;61354;50.758;6.106;2022-12-18T00:10:23;2.40;;;1.42;;
73150;SDS011;61354;50.758;6.106;2022-12-18T00:12:48;2.47;;;1.40;;
73150;SDS011;61354;50.758;6.106;2022-12-18T00:15:14;2.47;;;1.20;;
73150;SDS011;61354;50.758;6.106;2022-12-18T00:17:39;2.65;;;1.30;;
73150;SDS011;61354;50.758;6.106;2022-12-18T00:20:05;3.30;;;1.48;;
73150;SDS011;61354;50.758;6.106;2022-12-18T00:22:31;2.58;;;1.42;;
73150;SDS011;61354;50.758;6.106;2022-12-18T00:24:57;1.48;;;0.70;;
73150;SDS011;61354;50.758;6.106;2022-12-18T00:27:22;2.17;;;1.02;;
73150;SDS011;61354;50.758;6.106;2022-12-18T00:29:48;1.55;;;0.95;;
73150;SDS011;61354;50.758;6.106;2022-12-18T00:32:14;2.10;;;1.40;;
73150;SDS011;61354;50.758;6.106;2022-12-18T00:34:39;3.38;;;1.20;;
73150;SDS011;61354;50.758;6.106;2022-12-18T00:37:05;3.03;;;1.75;;
73150;SDS011;61354;50.758;6.106;2022-12-18T00:39:30;4.05;;;1.50;;
73150;SDS011;61354;50.758;6.106;2022-12-18T00:41:55;2.13;;;1.10;;
73150;SDS011;61354;50.758;6.106;2022-12-18T00:44:39;4.28;;;1.70;;
73150;SDS011;61354;50.758;6.106;2022-12-18T00:47:05;2.60;;;1.52;;
73150;SDS011;61354;50.758;6.106;2022-12-18T00:49:30;0.93;;;0.85;;
73150;SDS011;61354;50.758;6.106;2022-12-18T00:51:55;1.48;;;0.80;;
73150;SDS011;61354;50.758;6.106;2022-12-18T00:54:21;1.80;;;0.90;;
73150;SDS011;61354;50.758;6.106;2022-12-18T00:56:46;1.85;;;1.17;;
73150;SDS011;61354;50.758;6.106;2022-12-18T00:59:12;1.75;;;1.00;;
73150;SDS011;61354;50.758;6.106;2022-12-18T01:01:37;1.25;;;1.02;;
73150;SDS011;61354;50.758;6.106;2022-12-18T01:04:03;1.23;;;1.02;;
73150;SDS011;61354;50.758;6.106;2022-12-18T01:06:29;1.70;;;1.10;;
73150;SDS011;61354;50.758;6.106;2022-12-18T01:08:54;1.75;;;1.02;;
73150;SDS011;61354;50.758;6.106;2022-12-18T01:11:20;1.65;;;1.00;;
73150;SDS011;61354;50.758;6.106;2022-12-18T01:13:46;1.15;;;0.90;;
73150;SDS011;61354;50.758;6.106;2022-12-18T01:16:12;2.17;;;0.80;;
73150;SDS011;61354;50.758;6.106;2022-12-18T01:18:39;1.60;;;1.00;;
73150;SDS011;61354;50.758;6.106;2022-12-18T01:21:06;1.60;;;0.77;;
73150;SDS011;61354;50.758;6.106;2022-12-18T01:23:32;0.90;;;0.75;;
73150;SDS011;61354;50.758;6.106;2022-12-18T01:25:58;1.65;;;0.95;;
73150;SDS011;61354;50.758;6.106;2022-12-18T01:28:23;1.63;;;0.93;;
73150;SDS011;61354;50.758;6.106;2022-12-18T01:30:48;1.85;;;1.10;;
73150;SDS011;61354;50.758;6.106;2022-12-18T01:33:14;0.88;;;0.63;;
73150;SDS011;61354;50.758;6.106;2022-12-18T01:35:40;1.35;;;0.88;;
73150;SDS011;61354;50.758;6.106;2022-12-18T01:38:09;2.40;;;1.10;;
73150;SDS011;61354;50.758;6.106;2022-12-18T01:40:34;1.60;;;0.82;;
73150;SDS011;61354;50.758;6.106;2022-12-18T01:43:00;1.60;;;0.98;;
73150;SDS011;61354;50.758;6.106;2022-12-18T01:45:27;1.15;;;1.00;;
73150;SDS011;61354;50.758;6.106;2022-12-18T01:48:01;0.70;;;0.60;;
73150;SDS011;61354;50.758;6.106;2022-12-18T01:50:31;1.35;;;1.00;;
73150;SDS011;61354;50.758;6.106;2022-12-18T01:53:06;0.80;;;0.80;;
73150;SDS011;61354;50.758;6.106;2022-12-18T01:55:37;1.25;;;0.82;;
73150;SDS011;61354;50.758;6.106;2022-12-18T01:58:10;1.17;;;0.77;;
73150;SDS011;61354;50.758;6.106;2022-12-18T02:00:35;1.02;;;0.82;;
73150;SDS011;61354;50.758;6.106;2022-12-18T02:03:01;1.80;;;1.10;;
73150;SDS011;61354;50.758;6.106;2022-12-18T02:08:23;1.25;;;1.00;;
73150;SDS011;61354;50.758;6.106;2022-12-18T02:14:18;1.00;;;0.82;;
73150;SDS011;61354;50.758;6.106;2022-12-18T02:19:59;1.25;;;0.70;;
73150;SDS011;61354;50.758;6.106;2022-12-18T02:28:44;1.52;;;1.10;;
73150;SDS011;61354;50.758;6.106;2022-12-18T02:31:15;1.17;;;0.75;;
73150;SDS011;61354;50.758;6.106;2022-12-18T02:33:56;1.67;;;1.00;;
73150;SDS011;61354;50.758;6.106;2022-12-18T02:36:26;2.67;;;1.20;;
73150;SDS011;61354;50.758;6.106;2022-12-18T02:38:54;1.70;;;0.98;;
73150;SDS011;61354;50.758;6.106;2022-12-18T02:41:24;1.80;;;1.17;;
73150;SDS011;61354;50.758;6.106;2022-12-18T02:43:55;2.42;;;1.20;;
73150;SDS011;61354;50.758;6.106;2022-12-18T02:46:35;3.25;;;1.67;;
73150;SDS011;61354;50.758;6.106;2022-12-18T02:54:45;2.13;;;1.42;;
73150;SDS011;61354;50.758;6.106;2022-12-18T02:59:51;2.60;;;1.30;;
73150;SDS011;61354;50.758;6.106;2022-12-18T03:02:30;2.40;;;1.30;;
73150;SDS011;61354;50.758;6.106;2022-12-18T03:05:14;1.33;;;0.90;;
73150;SDS011;61354;50.758;6.106;2022-12-18T03:10:25;1.70;;;1.05;;
73150;SDS011;61354;50.758;6.106;2022-12-18T03:12:57;2.38;;;1.20;;
73150;SDS011;61354;50.758;6.106;2022-12-18T03:15:35;2.28;;;1.50;;
73150;SDS011;61354;50.758;6.106;2022-12-18T03:18:08;2.92;;;1.48;;
73150;SDS011;61354;50.758;6.106;2022-12-18T03:20:39;2.47;;;1.92;;
73150;SDS011;61354;50.758;6.106;2022-12-18T03:23:08;2.80;;;1.50;;
73150;SDS011;61354;50.758;6.106;2022-12-18T03:25:38;2.33;;;1.38;;
73150;SDS011;61354;50.758;6.106;2022-12-18T03:28:08;2.00;;;1.20;;
73150;SDS011;61354;50.758;6.106;2022-12-18T03:30:37;1.63;;;1.00;;
73150;SDS011;61354;50.758;6.106;2022-12-18T03:33:08;2.30;;;1.60;;
73150;SDS011;61354;50.758;6.106;2022-12-18T03:35:38;2.83;;;1.13;;
73150;SDS011;61354;50.758;6.106;2022-12-18T03:38:07;2.25;;;1.42;;
73150;SDS011;61354;50.758;6.106;2022-12-18T03:41:19;2.20;;;1.10;;
73150;SDS011;61354;50.758;6.106;2022-12-18T03:46:30;2.95;;;1.17;;
73150;SDS011;61354;50.758;6.106;2022-12-18T03:49:45;2.58;;;1.30;;
73150;SDS011;61354;50.758;6.106;2022-12-18T03:57:01;2.20;;;1.20;;
73150;SDS011;61354;50.758;6.106;2022-12-18T03:59:32;1.95;;;1.30;;
73150;SDS011;61354;50.758;6.106;2022-12-18T04:01:59;3.90;;;1.42;;
73150;SDS011;61354;50.758;6.106;2022-12-18T04:04:27;2.30;;;1.13;;
73150;SDS011;61354;50.758;6.106;2022-12-18T04:06:53;4.13;;;1.70;;
73150;SDS011;61354;50.758;6.106;2022-12-18T04:09:20;3.05;;;1.80;;
73150;SDS011;61354;50.758;6.106;2022-12-18T04:11:46;3.17;;;1.60;;
73150;SDS011;61354;50.758;6.106;2022-12-18T04:14:13;2.80;;;1.52;;
73150;SDS011;61354;50.758;6.106;2022-12-18T04:16:38;1.98;;;1.20;;
73150;SDS011;61354;50.758;6.106;2022-12-18T04:19:04;6.28;;;2.08;;
73150;SDS011;61354;50.758;6.106;2022-12-18T04:21:30;2.42;;;1.02;;
73150;SDS011;61354;50.758;6.106;2022-12-18T04:23:55;2.58;;;1.23;;
73150;SDS011;61354;50.758;6.106;2022-12-18T04:26:20;1.90;;;1.55;;
73150;SDS011;61354;50.758;6.106;2022-12-18T04:28:46;2.42;;;1.50;;
73150;SDS011;61354;50.758;6.106;2022-12-18T04:31:11;1.73;;;1.15;;
73150;SDS011;61354;50.758;6.106;2022-12-18T04:33:37;2.08;;;1.00;;
73150;SDS011;61354;50.758;6.106;2022-12-18T04:36:02;3.13;;;1.70;;
73150;SDS011;61354;50.758;6.106;2022-12-18T04:38:28;3.40;;;1.90;;
73150;SDS011;61354;50.758;6.106;2022-12-18T04:40:53;3.05;;;1.33;;
73150;SDS011;61354;50.758;6.106;2022-12-18T04:43:19;4.03;;;1.90;;
73150;SDS011;61354;50.758;6.106;2022-12-18T04:45:45;2.47;;;1.23;;
73150;SDS011;61354;50.758;6.106;2022-12-18T04:48:10;2.53;;;1.35;;
73150;SDS011;61354;50.758;6.106;2022-12-18T04:50:35;2.50;;;1.63;;
73150;SDS011;61354;50.758;6.106;2022-12-18T04:53:01;2.38;;;1.25;;
73150;SDS011;61354;50.758;6.106;2022-12-18T04:55:26;2.72;;;1.50;;
73150;SDS011;61354;50.758;6.106;2022-12-18T04:57:52;3.60;;;1.48;;
73150;SDS011;61354;50.758;6.106;2022-12-18T05:00:18;2.15;;;1.33;;
73150;SDS011;61354;50.758;6.106;2022-12-18T05:02:43;3.00;;;1.30;;
73150;SDS011;61354;50.758;6.106;2022-12-18T05:05:09;3.20;;;1.80;;
73150;SDS011;61354;50.758;6.106;2022-12-18T05:07:35;2.72;;;1.75;;
73150;SDS011;61354;50.758;6.106;2022-12-18T05:10:00;4.18;;;2.08;;
73150;SDS011;61354;50.758;6.106;2022-12-18T05:12:26;2.92;;;1.50;;
73150;SDS011;61354;50.758;6.106;2022-12-18T05:14:51;3.58;;;2.30;;
73150;SDS011;61354;50.758;6.106;2022-12-18T05:17:17;3.95;;;1.92;;
73150;SDS011;61354;50.758;6.106;2022-12-18T05:19:42;5.15;;;2.10;;
73150;SDS011;61354;50.758;6.106;2022-12-18T05:22:08;3.25;;;1.67;;
73150;SDS011;61354;50.758;6.106;2022-12-18T05:24:34;3.75;;;2.22;;
73150;SDS011;61354;50.758;6.106;2022-12-18T05:27:00;3.05;;;1.77;;
73150;SDS011;61354;50.758;6.106;2022-12-18T05:29:25;3.55;;;2.20;;
73150;SDS011;61354;50.758;6.106;2022-12-18T05:31:51;4.50;;;2.05;;
73150;SDS011;61354;50.758;6.106;2022-12-18T05:34:16;2.47;;;1.52;;
73150;SDS011;61354;50.758;6.106;2022-12-18T05:36:42;4.57;;;1.98;;
73150;SDS011;61354;50.758;6.106;2022-12-18T05:39:07;3.55;;;2.08;;
73150;SDS011;61354;50.758;6.106;2022-12-18T05:41:34;6.72;;;3.10;;
73150;SDS011;61354;50.758;6.106;2022-12-18T05:43:59;2.30;;;1.73;;
73150;SDS011;61354;50.758;6.106;2022-12-18T05:46:25;4.43;;;2.55;;
73150;SDS011;61354;50.758;6.106;2022-12-18T05:48:50;4.72;;;2.10;;
73150;SDS011;61354;50.758;6.106;2022-12-18T05:51:18;3.08;;;1.85;;
73150;SDS011;61354;50.758;6.106;2022-12-18T05:56:15;2.15;;;1.40;;
73150;SDS011;61354;50.758;6.106;2022-12-18T05:58:43;5.75;;;2.10;;
73150;SDS011;61354;50.758;6.106;2022-12-18T06:01:15;4.30;;;1.63;;
73150;SDS011;61354;50.758;6.106;2022-12-18T06:03:44;3.17;;;1.90;;
73150;SDS011;61354;50.758;6.106;2022-12-18T06:06:16;5.60;;;2.40;;
73150;SDS011;61354;50.758;6.106;2022-12-18T06:08:43;5.50;;;2.08;;
73150;SDS011;61354;50.758;6.106;2022-12-18T06:11:09;3.60;;;2.00;;
73150;SDS011;61354;50.758;6.106;2022-12-18T06:13:35;5.88;;;2.50;;
73150;SDS011;61354;50.758;6.106;2022-12-18T06:16:06;3.17;;;1.80;;
73150;SDS011;61354;50.758;6.106;2022-12-18T06:18:33;6.40;;;2.67;;
73150;SDS011;61354;50.758;6.106;2022-12-18T06:20:59;4.47;;;2.33;;
73150;SDS011;61354;50.758;6.106;2022-12-18T06:23:25;4.65;;;2.28;;
73150;SDS011;61354;50.758;6.106;2022-12-18T06:25:51;4.07;;;2.35;;
73150;SDS011;61354;50.758;6.106;2022-12-18T06:28:16;5.22;;;2.67;;
73150;SDS011;61354;50.758;6.106;2022-12-18T06:30:45;44.33;;;12.70;;
73150;SDS011;61354;50.758;6.106;2022-12-18T06:33:13;43.42;;;13.10;;
73150;SDS011;61354;50.758;6.106;2022-12-18T06:35:39;42.35;;;12.52;;
73150;SDS011;61354;50.758;6.106;2022-12-18T06:38:05;8.32;;;3.38;;
73150;SDS011;61354;50.758;6.106;2022-12-18T06:40:30;10.07;;;3.42;;
73150;SDS011;61354;50.758;6.106;2022-12-18T06:42:56;11.10;;;3.72;;
73150;SDS011;61354;50.758;6.106;2022-12-18T06:45:25;5.03;;;1.88;;
73150;SDS011;61354;50.758;6.106;2022-12-18T06:47:50;3.95;;;2.08;;
73150;SDS011;61354;50.758;6.106;2022-12-18T06:50:16;7.75;;;2.70;;
73150;SDS011;61354;50.758;6.106;2022-12-18T06:52:42;4.63;;;2.67;;
73150;SDS011;61354;50.758;6.106;2022-12-18T06:55:09;2.33;;;1.83;;
73150;SDS011;61354;50.758;6.106;2022-12-18T06:57:36;2.53;;;1.33;;
73150;SDS011;61354;50.758;6.106;2022-12-18T07:00:03;3.38;;;1.70;;
73150;SDS011;61354;50.758;6.106;2022-12-18T07:02:30;2.38;;;1.52;;
73150;SDS011;61354;50.758;6.106;2022-12-18T07:04:56;3.88;;;1.85;;
73150;SDS011;61354;50.758;6.106;2022-12-18T07:07:21;2.72;;;1.67;;
73150;SDS011;61354;50.758;6.106;2022-12-18T07:09:48;2.60;;;1.75;;
73150;SDS011;61354;50.758;6.106;2022-12-18T07:12:14;4.57;;;2.30;;
73150;SDS011;61354;50.758;6.106;2022-12-18T07:14:40;2.88;;;1.50;;
73150;SDS011;61354;50.758;6.106;2022-12-18T07:17:05;3.58;;;1.60;;
73150;SDS011;61354;50.758;6.106;2022-12-18T07:19:31;4.82;;;1.80;;
73150;SDS011;61354;50.758;6.106;2022-12-18T07:21:56;3.85;;;1.67;;
73150;SDS011;61354;50.758;6.106;2022-12-18T07:24:21;3.08;;;1.90;;
73150;SDS011;61354;50.758;6.106;2022-12-18T07:26:47;3.15;;;1.92;;
73150;SDS011;61354;50.758;6.106;2022-12-18T07:29:13;6.78;;;2.88;;
73150;SDS011;61354;50.758;6.106;2022-12-18T07:31:38;6.07;;;2.05;;
73150;SDS011;61354;50.758;6.106;2022-12-18T07:34:04;3.15;;;1.88;;
73150;SDS011;61354;50.758;6.106;2022-12-18T07:36:29;5.10;;;2.78;;
73150;SDS011;61354;50.758;6.106;2022-12-18T07:38:55;5.05;;;2.92;;
73150;SDS011;61354;50.758;6.106;2022-12-18T07:41:21;4.75;;;2.38;;
73150;SDS011;61354;50.758;6.106;2022-12-18T07:43:46;3.05;;;2.22;;
73150;SDS011;61354;50.758;6.106;2022-12-18T07:46:13;3.47;;;2.17;;
73150;SDS011;61354;50.758;6.106;2022-12-18T07:48:40;3.10;;;2.10;;
73150;SDS011;61354;50.758;6.106;2022-12-18T07:51:06;2.75;;;1.83;;
73150;SDS011;61354;50.758;6.106;2022-12-18T07:53:33;4.00;;;2.17;;
73150;SDS011;61354;50.758;6.106;2022-12-18T07:56:02;10.45;;;4.57;;
73150;SDS011;61354;50.758;6.106;2022-12-18T07:58:29;5.28;;;2.78;;
73150;SDS011;61354;50.758;6.106;2022-12-18T08:01:01;5.45;;;2.80;;
73150;SDS011;61354;50.758;6.106;2022-12-18T08:03:31;4.60;;;2.58;;
73150;SDS011;61354;50.758;6.106;2022-12-18T08:06:00;6.13;;;3.75;;
73150;SDS011;61354;50.758;6.106;2022-12-18T08:08:27;4.28;;;2.42;;
73150;SDS011;61354;50.758;6.106;2022-12-18T08:10:53;6.65;;;3.67;;
73150;SDS011;61354;50.758;6.106;2022-12-18T08:14:05;5.53;;;2.35;;
73150;SDS011;61354;50.758;6.106;2022-12-18T08:16:56;5.85;;;2.95;;
73150;SDS011;61354;50.758;6.106;2022-12-18T08:22:51;5.00;;;2.72;;
73150;SDS011;61354;50.758;6.106;2022-12-18T08:25:44;6.78;;;3.30;;
73150;SDS011;61354;50.758;6.106;2022-12-18T08:28:41;8.55;;;3.70;;
73150;SDS011;61354;50.758;6.106;2022-12-18T08:31:53;6.35;;;3.42;;
73150;SDS011;61354;50.758;6.106;2022-12-18T08:34:39;6.53;;;3.42;;
73150;SDS011;61354;50.758;6.106;2022-12-18T08:37:37;5.45;;;3.40;;
73150;SDS011;61354;50.758;6.106;2022-12-18T08:40:32;5.45;;;2.53;;
73150;SDS011;61354;50.758;6.106;2022-12-18T08:43:33;5.75;;;2.85;;
73150;SDS011;61354;50.758;6.106;2022-12-18T08:46:34;7.70;;;4.10;;
73150;SDS011;61354;50.758;6.106;2022-12-18T08:49:37;7.15;;;4.43;;
73150;SDS011;61354;50.758;6.106;2022-12-18T08:52:31;8.48;;;4.85;;
73150;SDS011;61354;50.758;6.106;2022-12-18T08:55:15;15.18;;;7.15;;
73150;SDS011;61354;50.758;6.106;2022-12-18T08:58:17;14.25;;;7.03;;
73150;SDS011;61354;50.758;6.106;2022-12-18T09:01:11;15.23;;;8.20;;
73150;SDS011;61354;50.758;6.106;2022-12-18T09:04:07;8.13;;;5.10;;
73150;SDS011;61354;50.758;6.106;2022-12-18T09:06:56;6.60;;;3.88;;
73150;SDS011;61354;50.758;6.106;2022-12-18T09:09:53;5.60;;;3.72;;
73150;SDS011;61354;50.758;6.106;2022-12-18T09:12:52;13.68;;;3.70;;
73150;SDS011;61354;50.758;6.106;2022-12-18T09:15:49;5.65;;;3.33;;
73150;SDS011;61354;50.758;6.106;2022-12-18T09:18:30;6.72;;;3.70;;
73150;SDS011;61354;50.758;6.106;2022-12-18T09:21:18;6.90;;;4.78;;
73150;SDS011;61354;50.758;6.106;2022-12-18T09:24:04;6.60;;;3.90;;
73150;SDS011;61354;50.758;6.106;2022-12-18T09:26:48;7.15;;;4.47;;
73150;SDS011;61354;50.758;6.106;2022-12-18T09:37:11;6.32;;;4.18;;
73150;SDS011;61354;50.758;6.106;2022-12-18T09:43:37;13.68;;;6.40;;
73150;SDS011;61354;50.758;6.106;2022-12-18T10:01:53;12.23;;;7.22;;
73150;SDS011;61354;50.758;6.106;2022-12-18T10:04:19;10.13;;;6.43;;
73150;SDS011;61354;50.758;6.106;2022-12-18T10:06:46;11.15;;;6.07;;
73150;SDS011;61354;50.758;6.106;2022-12-18T10:14:58;15.10;;;7.57;;
73150;SDS011;61354;50.758;6.106;2022-12-18T10:20:56;14.13;;;7.25;;
73150;SDS011;61354;50.758;6.106;2022-12-18T10:26:12;13.18;;;6.50;;
73150;SDS011;61354;50.758;6.106;2022-12-18T10:28:38;13.20;;;6.80;;
73150;SDS011;61354;50.758;6.106;2022-12-18T10:31:05;12.82;;;7.13;;
73150;SDS011;61354;50.758;6.106;2022-12-18T10:33:57;16.33;;;7.28;;
73150;SDS011;61354;50.758;6.106;2022-12-18T10:36:23;13.30;;;6.80;;
73150;SDS011;61354;50.758;6.106;2022-12-18T10:38:49;13.45;;;7.00;;
73150;SDS011;61354;50.758;6.106;2022-12-18T10:43:44;13.43;;;7.07;;
73150;SDS011;61354;50.758;6.106;2022-12-18T10:54:06;11.10;;;7.03;;
73150;SDS011;61354;50.758;6.106;2022-12-18T10:56:38;16.90;;;8.52;;
73150;SDS011;61354;50.758;6.106;2022-12-18T10:59:08;16.55;;;8.75;;
73150;SDS011;61354;50.758;6.106;2022-12-18T11:04:31;12.85;;;8.52;;
73150;SDS011;61354;50.758;6.106;2022-12-18T11:07:07;16.90;;;9.57;;
73150;SDS011;61354;50.758;6.106;2022-12-18T11:09:34;15.23;;;8.40;;
73150;SDS011;61354;50.758;6.106;2022-12-18T11:12:02;17.13;;;8.85;;
73150;SDS011;61354;50.758;6.106;2022-12-18T11:15:13;12.98;;;7.72;;
73150;SDS011;61354;50.758;6.106;2022-12-18T11:17:28;21.20;;;9.20;;
73150;SDS011;61354;50.758;6.106;2022-12-18T11:19:57;17.20;;;9.18;;
73150;SDS011;61354;50.758;6.106;2022-12-18T11:22:25;18.60;;;9.43;;
73150;SDS011;61354;50.758;6.106;2022-12-18T11:25:03;17.52;;;9.57;;
73150;SDS011;61354;50.758;6.106;2022-12-18T11:27:32;18.35;;;8.98;;
73150;SDS011;61354;50.758;6.106;2022-12-18T11:32:45;15.10;;;9.20;;
73150;SDS011;61354;50.758;6.106;2022-12-18T11:35:16;14.88;;;8.20;;
73150;SDS011;61354;50.758;6.106;2022-12-18T11:37:57;14.32;;;8.73;;
73150;SDS011;61354;50.758;6.106;2022-12-18T11:40:27;18.73;;;8.35;;
73150;SDS011;61354;50.758;6.106;2022-12-18T11:42:59;18.50;;;9.48;;
73150;SDS011;61354;50.758;6.106;2022-12-18T11:45:33;14.93;;;8.27;;
73150;SDS011;61354;50.758;6.106;2022-12-18T11:48:14;16.80;;;9.13;;
73150;SDS011;61354;50.758;6.106;2022-12-18T11:50:53;16.17;;;8.52;;
73150;SDS011;61354;50.758;6.106;2022-12-18T11:53:21;15.40;;;8.95;;
73150;SDS011;61354;50.758;6.106;2022-12-18T12:01:06;16.02;;;8.88;;
73150;SDS011;61354;50.758;6.106;2022-12-18T12:17:34;19.00;;;10.77;;
73150;SDS011;61354;50.758;6.106;2022-12-18T12:20:04;18.00;;;10.82;;
73150;SDS011;61354;50.758;6.106;2022-12-18T12:36:35;19.73;;;10.55;;
73150;SDS011;61354;50.758;6.106;2022-12-18T12:39:10;21.00;;;11.40;;
73150;SDS011;61354;50.758;6.106;2022-12-18T12:41:41;20.23;;;9.35;;
73150;SDS011;61354;50.758;6.106;2022-12-18T12:44:29;16.90;;;9.10;;
73150;SDS011;61354;50.758;6.106;2022-12-18T12:47:01;18.85;;;9.32;;
73150;SDS011;61354;50.758;6.106;2022-12-18T12:49:35;17.83;;;8.68;;
73150;SDS011;61354;50.758;6.106;2022-12-18T12:54:49;17.50;;;8.20;;
73150;SDS011;61354;50.758;6.106;2022-12-18T12:57:23;14.45;;;7.88;;
73150;SDS011;61354;50.758;6.106;2022-12-18T13:08:09;23.52;;;11.07;;
73150;SDS011;61354;50.758;6.106;2022-12-18T13:13:07;25.58;;;12.75;;
73150;SDS011;61354;50.758;6.106;2022-12-18T13:18:24;33.47;;;17.77;;
73150;SDS011;61354;50.758;6.106;2022-12-18T13:20:51;38.08;;;18.52;;
73150;SDS011;61354;50.758;6.106;2022-12-18T13:31:57;23.10;;;12.95;;
73150;SDS011;61354;50.758;6.106;2022-12-18T13:36:53;29.85;;;14.32;;
73150;SDS011;61354;50.758;6.106;2022-12-18T13:39:24;20.60;;;11.10;;
73150;SDS011;61354;50.758;6.106;2022-12-18T13:44:33;20.38;;;10.73;;
73150;SDS011;61354;50.758;6.106;2022-12-18T13:47:01;18.73;;;10.40;;
73150;SDS011;61354;50.758;6.106;2022-12-18T13:52:18;22.88;;;12.18;;
73150;SDS011;61354;50.758;6.106;2022-12-18T13:54:54;20.10;;;11.32;;
73150;SDS011;61354;50.758;6.106;2022-12-18T13:59:55;21.33;;;11.20;;
73150;SDS011;61354;50.758;6.106;2022-12-18T14:02:22;22.23;;;11.90;;
73150;SDS011;61354;50.758;6.106;2022-12-18T14:04:53;23.27;;;12.07;;
73150;SDS011;61354;50.758;6.106;2022-12-18T14:07:23;21.10;;;11.68;;
73150;SDS011;61354;50.758;6.106;2022-12-18T14:09:52;14.95;;;8.48;;
73150;SDS011;61354;50.758;6.106;2022-12-18T14:12:22;15.43;;;7.30;;
73150;SDS011;61354;50.758;6.106;2022-12-18T14:20:14;18.00;;;10.65;;
73150;SDS011;61354;50.758;6.106;2022-12-18T14:22:45;22.38;;;12.48;;
73150;SDS011;61354;50.758;6.106;2022-12-18T14:27:37;26.92;;;12.98;;
73150;SDS011;61354;50.758;6.106;2022-12-18T14:33:00;22.90;;;12.32;;
73150;SDS011;61354;50.758;6.106;2022-12-18T14:35:36;45.08;;;17.70;;
73150;SDS011;61354;50.758;6.106;2022-12-18T14:40:53;43.08;;;19.42;;
73150;SDS011;61354;50.758;6.106;2022-12-18T14:43:20;37.90;;;18.50;;
73150;SDS011;61354;50.758;6.106;2022-12-18T14:45:46;26.73;;;13.75;;
73150;SDS011;61354;50.758;6.106;2022-12-18T14:48:16;20.85;;;11.15;;
73150;SDS011;61354;50.758;6.106;2022-12-18T14:50:54;12.07;;;7.70;;
73150;SDS011;61354;50.758;6.106;2022-12-18T14:53:33;17.85;;;7.90;;
73150;SDS011;61354;50.758;6.106;2022-12-18T14:55:59;23.95;;;11.77;;
73150;SDS011;61354;50.758;6.106;2022-12-18T14:58:25;16.73;;;9.48;;
73150;SDS011;61354;50.758;6.106;2022-12-18T15:00:51;18.50;;;9.63;;
73150;SDS011;61354;50.758;6.106;2022-12-18T15:03:20;21.25;;;9.30;;
73150;SDS011;61354;50.758;6.106;2022-12-18T15:05:46;11.48;;;6.55;;
73150;SDS011;61354;50.758;6.106;2022-12-18T15:08:29;10.30;;;5.28;;
73150;SDS011;61354;50.758;6.106;2022-12-18T15:10:59;10.10;;;5.53;;
73150;SDS011;61354;50.758;6.106;2022-12-18T15:13:25;13.23;;;6.72;;
73150;SDS011;61354;50.758;6.106;2022-12-18T15:15:51;10.70;;;5.85;;
73150;SDS011;61354;50.758;6.106;2022-12-18T15:18:23;12.70;;;5.75;;
73150;SDS011;61354;50.758;6.106;2022-12-18T15:20:58;10.38;;;5.40;;
73150;SDS011;61354;50.758;6.106;2022-12-18T15:23:34;7.45;;;3.97;;
73150;SDS011;61354;50.758;6.106;2022-12-18T15:26:04;7.00;;;3.90;;
73150;SDS011;61354;50.758;6.106;2022-12-18T15:28:36;6.63;;;3.72;;
73150;SDS011;61354;50.758;6.106;2022-12-18T15:33:42;7.22;;;3.53;;
73150;SDS011;61354;50.758;6.106;2022-12-18T15:36:14;8.90;;;3.97;;
73150;SDS011;61354;50.758;6.106;2022-12-18T15:38:41;6.30;;;3.70;;
73150;SDS011;61354;50.758;6.106;2022-12-18T15:41:13;9.27;;;3.85;;
73150;SDS011;61354;50.758;6.106;2022-12-18T15:43:39;8.98;;;4.22;;
73150;SDS011;61354;50.758;6.106;2022-12-18T15:46:06;9.20;;;4.57;;
73150;SDS011;61354;50.758;6.106;2022-12-18T15:48:34;10.40;;;4.63;;
73150;SDS011;61354;50.758;6.106;2022-12-18T15:51:05;8.27;;;4.18;;
73150;SDS011;61354;50.758;6.106;2022-12-18T15:53:38;9.73;;;4.13;;
73150;SDS011;61354;50.758;6.106;2022-12-18T15:56:04;10.55;;;4.35;;
73150;SDS011;61354;50.758;6.106;2022-12-18T15:58:54;9.90;;;4.45;;
73150;SDS011;61354;50.758;6.106;2022-12-18T16:01:19;9.35;;;4.75;;
73150;SDS011;61354;50.758;6.106;2022-12-18T16:03:47;10.82;;;4.63;;
73150;SDS011;61354;50.758;6.106;2022-12-18T16:06:13;9.05;;;4.45;;
73150;SDS011;61354;50.758;6.106;2022-12-18T16:08:38;10.45;;;4.55;;
73150;SDS011;61354;50.758;6.106;2022-12-18T16:11:04;11.77;;;5.03;;
73150;SDS011;61354;50.758;6.106;2022-12-18T16:13:31;10.27;;;4.32;;
73150;SDS011;61354;50.758;6.106;2022-12-18T16:15:56;7.88;;;4.45;;
73150;SDS011;61354;50.758;6.106;2022-12-18T16:18:22;12.55;;;5.25;;
73150;SDS011;61354;50.758;6.106;2022-12-18T16:20:48;8.80;;;4.60;;
73150;SDS011;61354;50.758;6.106;2022-12-18T16:23:13;11.57;;;5.78;;
73150;SDS011;61354;50.758;6.106;2022-12-18T16:25:39;17.38;;;8.88;;
73150;SDS011;61354;50.758;6.106;2022-12-18T16:28:04;24.67;;;12.00;;
73150;SDS011;61354;50.758;6.106;2022-12-18T16:30:30;18.40;;;9.23;;
73150;SDS011;61354;50.758;6.106;2022-12-18T16:32:56;19.50;;;8.18;;
73150;SDS011;61354;50.758;6.106;2022-12-18T16:35:23;17.55;;;7.68;;
73150;SDS011;61354;50.758;6.106;2022-12-18T16:37:49;15.93;;;9.13;;
73150;SDS011;61354;50.758;6.106;2022-12-18T16:40:15;15.63;;;8.60;;
73150;SDS011;61354;50.758;6.106;2022-12-18T16:42:42;8.52;;;4.85;;
73150;SDS011;61354;50.758;6.106;2022-12-18T16:45:09;10.10;;;5.38;;
73150;SDS011;61354;50.758;6.106;2022-12-18T16:47:37;12.43;;;5.68;;
73150;SDS011;61354;50.758;6.106;2022-12-18T16:50:03;12.70;;;7.07;;
73150;SDS011;61354;50.758;6.106;2022-12-18T16:52:29;10.60;;;5.50;;
73150;SDS011;61354;50.758;6.106;2022-12-18T16:54:55;10.98;;;5.60;;
73150;SDS011;61354;50.758;6.106;2022-12-18T16:57:21;11.23;;;5.47;;
73150;SDS011;61354;50.758;6.106;2022-12-18T16:59:46;12.25;;;6.30;;
73150;SDS011;61354;50.758;6.106;2022-12-18T17:02:13;10.63;;;5.15;;
73150;SDS011;61354;50.758;6.106;2022-12-18T17:04:41;10.75;;;5.95;;
73150;SDS011;61354;50.758;6.106;2022-12-18T17:07:08;10.20;;;5.35;;
73150;SDS011;61354;50.758;6.106;2022-12-18T17:09:34;10.60;;;5.75;;
73150;SDS011;61354;50.758;6.106;2022-12-18T17:11:59;10.18;;;5.68;;
73150;SDS011;61354;50.758;6.106;2022-12-18T17:14:25;11.48;;;6.00;;
73150;SDS011;61354;50.758;6.106;2022-12-18T17:16:53;12.90;;;5.75;;
73150;SDS011;61354;50.758;6.106;2022-12-18T17:19:21;12.13;;;5.43;;
73150;SDS011;61354;50.758;6.106;2022-12-18T17:21:48;12.05;;;5.57;;
73150;SDS011;61354;50.758;6.106;2022-12-18T17:24:14;11.07;;;5.50;;
73150;SDS011;61354;50.758;6.106;2022-12-18T17:26:40;10.30;;;5.53;;
73150;SDS011;61354;50.758;6.106;2022-12-18T17:29:06;11.85;;;6.13;;
73150;SDS011;61354;50.758;6.106;2022-12-18T17:31:33;12.07;;;5.10;;
73150;SDS011;61354;50.758;6.106;2022-12-18T17:34:00;11.88;;;5.38;;
73150;SDS011;61354;50.758;6.106;2022-12-18T17:36:27;12.18;;;5.68;;
73150;SDS011;61354;50.758;6.106;2022-12-18T17:38:56;11.60;;;5.65;;
73150;SDS011;61354;50.758;6.106;2022-12-18T17:41:24;11.43;;;5.70;;
73150;SDS011;61354;50.758;6.106;2022-12-18T17:43:54;12.98;;;4.68;;
73150;SDS011;61354;50.758;6.106;2022-12-18T17:46:28;29.15;;;11.77;;
73150;SDS011;61354;50.758;6.106;2022-12-18T17:48:56;15.40;;;6.65;;
73150;SDS011;61354;50.758;6.106;2022-12-18T17:51:23;16.05;;;6.63;;
73150;SDS011;61354;50.758;6.106;2022-12-18T17:53:52;15.95;;;7.30;;
73150;SDS011;61354;50.758;6.106;2022-12-18T17:56:18;16.48;;;6.95;;
73150;SDS011;61354;50.758;6.106;2022-12-18T17:58:46;15.02;;;6.63;;